createdAt,value
2022-11-27T00:03:06.000Z,5.60
2022-11-27T00:08:08.994Z,5.60
2022-11-27T00:13:11.846Z,5.60
2022-11-27T00:18:14.687Z,5.60
2022-11-27T00:23:17.578Z,5.60
2022-11-27T00:28:21.019Z,5.60
2022-11-27T00:33:23.971Z,5.50
2022-11-27T00:38:26.872Z,5.50
2022-11-27T00:43:29.728Z,5.50
2022-11-27T00:48:33.151Z,5.50
2022-11-27T00:53:36.161Z,5.50
2022-11-27T00:58:39.059Z,5.50
2022-11-27T01:03:41.937Z,5.50
2022-11-27T01:08:45.320Z,5.50
2022-11-27T01:13:49.165Z,5.50
2022-11-27T01:18:56.268Z,5.50
2022-11-27T01:24:00.611Z,5.50
2022-11-27T01:29:04.072Z,5.50
2022-11-27T01:34:12.934Z,5.50
2022-11-27T01:39:21.578Z,5.50
2022-11-27T01:44:24.410Z,5.40
2022-11-27T01:49:40.725Z,5.40
2022-11-27T01:55:18.954Z,5.40
2022-11-27T02:00:22.983Z,5.40
2022-11-27T02:05:28.686Z,5.40
2022-11-27T02:11:13.263Z,5.40
2022-11-27T02:16:53.856Z,5.30
2022-11-27T02:22:15.066Z,5.30
2022-11-27T02:27:42.122Z,5.40
2022-11-27T02:33:00.116Z,5.40
2022-11-27T02:38:17.413Z,5.40
2022-11-27T02:43:37.906Z,5.40
2022-11-27T02:48:54.852Z,5.40
2022-11-27T02:54:03.265Z,5.30
2022-11-27T02:59:12.725Z,5.30
2022-11-27T03:04:23.532Z,5.30
2022-11-27T03:09:39.429Z,5.30
2022-11-27T03:14:43.557Z,5.30
2022-11-27T03:19:53.178Z,5.40
2022-11-27T03:24:56.117Z,5.40
2022-11-27T03:30:03.923Z,5.40
2022-11-27T03:35:11.362Z,5.50
2022-11-27T03:40:15.905Z,5.60
2022-11-27T03:45:59.088Z,5.60
2022-11-27T03:51:15.348Z,5.70
2022-11-27T03:56:37.132Z,5.70
2022-11-27T04:01:40.968Z,5.80
2022-11-27T04:06:43.874Z,5.80
2022-11-27T04:11:46.897Z,5.80
2022-11-27T04:16:49.836Z,5.80
2022-11-27T04:21:52.721Z,5.90
2022-11-27T04:26:55.695Z,5.90
2022-11-27T04:31:58.605Z,5.90
2022-11-27T04:37:01.466Z,6.00
2022-11-27T04:42:04.545Z,6.00
2022-11-27T04:47:07.479Z,6.00
2022-11-27T04:52:11.101Z,6.00
2022-11-27T04:57:14.097Z,6.00
2022-11-27T05:02:17.256Z,6.00
2022-11-27T05:07:20.198Z,6.10
2022-11-27T05:12:23.286Z,6.10
2022-11-27T05:17:26.262Z,6.10
2022-11-27T05:22:29.031Z,6.20
2022-11-27T05:27:31.984Z,6.20
2022-11-27T05:32:35.351Z,6.20
2022-11-27T05:37:38.147Z,6.20
2022-11-27T05:42:41.020Z,6.30
2022-11-27T05:47:43.919Z,6.30
2022-11-27T05:52:46.879Z,6.30
2022-11-27T05:57:49.789Z,6.30
2022-11-27T06:02:53.249Z,6.30
2022-11-27T06:07:56.186Z,6.30
2022-11-27T06:12:59.304Z,6.20
2022-11-27T06:18:02.331Z,6.20
2022-11-27T06:23:05.280Z,6.20
2022-11-27T06:28:07.964Z,6.20
2022-11-27T06:33:10.829Z,6.20
2022-11-27T06:38:13.683Z,6.20
2022-11-27T06:43:16.559Z,6.20
2022-11-27T06:48:19.557Z,6.30
2022-11-27T06:53:22.446Z,6.30
2022-11-27T06:58:29.511Z,6.30
2022-11-27T07:03:34.246Z,6.30
2022-11-27T07:08:37.775Z,6.30
2022-11-27T07:13:41.286Z,6.40
2022-11-27T07:18:48.099Z,6.40
2022-11-27T07:23:51.332Z,6.40
2022-11-27T07:28:55.520Z,6.40
2022-11-27T07:33:59.195Z,6.50
2022-11-27T07:39:02.057Z,6.50
2022-11-27T07:44:05.077Z,6.60
2022-11-27T07:49:07.884Z,6.60
2022-11-27T07:54:10.822Z,6.60
2022-11-27T07:59:13.750Z,6.60
2022-11-27T08:04:16.996Z,6.60
2022-11-27T08:09:20.145Z,6.60
2022-11-27T08:14:23.043Z,6.70
2022-11-27T08:19:26.151Z,6.70
2022-11-27T08:24:29.212Z,6.80
2022-11-27T08:29:34.039Z,6.80
2022-11-27T08:34:37.860Z,6.80
2022-11-27T08:39:40.803Z,6.90
2022-11-27T08:44:44.401Z,6.90
2022-11-27T08:49:47.552Z,7.00
2022-11-27T08:54:56.072Z,7.00
2022-11-27T09:00:00.646Z,7.10
2022-11-27T09:05:06.249Z,7.20
2022-11-27T09:10:10.228Z,7.30
2022-11-27T09:15:14.136Z,7.40
2022-11-27T09:20:17.110Z,7.40
2022-11-27T09:25:19.920Z,7.50
2022-11-27T09:30:22.908Z,7.60
2022-11-27T09:35:26.534Z,7.70
2022-11-27T09:40:29.354Z,7.70
2022-11-27T09:45:33.331Z,7.80
2022-11-27T09:50:42.555Z,7.70
2022-11-27T09:55:50.103Z,7.60
2022-11-27T10:00:53.157Z,7.60
2022-11-27T10:06:30.150Z,7.50
2022-11-27T10:11:58.914Z,7.50
2022-11-27T10:18:12.340Z,7.40
2022-11-27T10:23:57.015Z,7.40
2022-11-27T10:29:30.663Z,7.30
2022-11-27T10:34:56.394Z,7.30
2022-11-27T10:40:15.889Z,7.30
2022-11-27T10:45:48.911Z,7.30
2022-11-27T10:50:52.136Z,7.30
2022-11-27T10:56:15.196Z,7.30
2022-11-27T11:01:21.257Z,7.30
2022-11-27T11:06:27.164Z,7.40
2022-11-27T11:11:30.454Z,7.40
2022-11-27T11:16:44.249Z,7.40
2022-11-27T11:21:47.213Z,7.40
2022-11-27T11:27:30.081Z,7.40
2022-11-27T11:32:40.559Z,7.40
2022-11-27T11:37:46.688Z,7.40
2022-11-27T11:43:27.747Z,7.40
2022-11-27T11:48:30.433Z,7.50
2022-11-27T11:53:41.116Z,7.50
2022-11-27T11:58:54.995Z,7.50
2022-11-27T12:04:48.761Z,7.50
2022-11-27T12:10:15.949Z,7.60
2022-11-27T12:15:47.161Z,7.70
2022-11-27T12:20:58.000Z,7.80
2022-11-27T12:26:09.958Z,7.90
2022-11-27T12:31:39.565Z,7.90
2022-11-27T12:37:27.018Z,8.00
2022-11-27T12:42:51.676Z,8.00
2022-11-27T12:48:12.421Z,8.00
2022-11-27T12:53:36.295Z,7.90
2022-11-27T12:58:48.597Z,7.90
2022-11-27T13:04:14.190Z,7.80
2022-11-27T13:09:52.091Z,7.80
2022-11-27T13:15:06.951Z,7.70
2022-11-27T13:20:20.801Z,7.70
2022-11-27T13:25:24.699Z,7.70
2022-11-27T13:30:34.805Z,7.70
2022-11-27T13:35:43.401Z,7.70
2022-11-27T13:40:55.013Z,7.60
2022-11-27T13:46:10.049Z,7.60
2022-11-27T13:51:31.510Z,7.60
2022-11-27T13:56:35.030Z,7.60
2022-11-27T14:01:39.177Z,7.60
2022-11-27T14:06:43.452Z,7.50
2022-11-27T14:11:48.183Z,7.50
2022-11-27T14:17:04.358Z,7.50
2022-11-27T14:23:11.254Z,7.50
2022-11-27T14:28:26.375Z,7.50
2022-11-27T14:33:47.381Z,7.50
2022-11-27T14:38:58.949Z,7.50
2022-11-27T14:44:03.999Z,7.50
2022-11-27T14:49:18.279Z,7.50
2022-11-27T14:54:30.648Z,7.50
2022-11-27T14:59:33.619Z,7.50
2022-11-27T15:04:44.263Z,7.40
2022-11-27T15:09:56.190Z,7.40
2022-11-27T15:15:15.718Z,7.40
2022-11-27T15:20:34.930Z,7.40
2022-11-27T15:25:46.023Z,7.30
2022-11-27T15:30:49.155Z,7.30
2022-11-27T15:35:54.028Z,7.30
2022-11-27T15:41:01.042Z,7.20
2022-11-27T15:46:08.433Z,7.20
2022-11-27T15:51:11.507Z,7.20
2022-11-27T15:56:16.085Z,7.20
2022-11-27T16:01:18.969Z,7.10
2022-11-27T16:06:24.664Z,7.10
2022-11-27T16:11:31.247Z,7.10
2022-11-27T16:16:35.431Z,7.10
2022-11-27T16:21:38.726Z,7.10
2022-11-27T16:26:43.124Z,7.00
2022-11-27T16:31:46.188Z,7.10
2022-11-27T16:36:49.087Z,7.00
2022-11-27T16:41:52.063Z,7.00
2022-11-27T16:46:54.941Z,7.00
2022-11-27T16:51:57.885Z,7.00
2022-11-27T16:57:00.835Z,7.00
2022-11-27T17:02:05.034Z,7.00
2022-11-27T17:07:08.403Z,7.00
2022-11-27T17:12:11.205Z,7.00
2022-11-27T17:17:14.150Z,7.00
2022-11-27T17:22:17.126Z,7.00
2022-11-27T17:27:20.048Z,7.00
2022-11-27T17:32:24.555Z,7.00
2022-11-27T17:37:27.475Z,7.00
2022-11-27T17:42:30.860Z,7.00
2022-11-27T17:47:34.239Z,7.10
2022-11-27T17:52:37.309Z,7.00
2022-11-27T17:57:40.264Z,7.00
2022-11-27T18:02:43.240Z,7.00
2022-11-27T18:07:46.247Z,6.90
2022-11-27T18:12:49.400Z,6.90
2022-11-27T18:17:52.263Z,6.90
2022-11-27T18:22:55.214Z,6.90
2022-11-27T18:27:58.736Z,6.90
2022-11-27T18:33:03.491Z,6.80
2022-11-27T18:38:06.338Z,6.80
2022-11-27T18:43:10.896Z,6.80
2022-11-27T18:48:13.836Z,6.70
2022-11-27T18:53:16.769Z,6.60
2022-11-27T18:58:19.704Z,6.60
2022-11-27T19:03:22.581Z,6.60
2022-11-27T19:08:25.580Z,6.60
2022-11-27T19:13:29.274Z,6.50
2022-11-27T19:18:32.197Z,6.60
2022-11-27T19:23:39.090Z,6.60
2022-11-27T19:28:43.502Z,6.50
2022-11-27T19:33:55.582Z,6.40
2022-11-27T19:39:02.381Z,6.40
2022-11-27T19:44:06.717Z,6.40
2022-11-27T19:49:17.584Z,6.40
2022-11-27T19:54:21.844Z,6.40
2022-11-27T19:59:26.252Z,6.40
2022-11-27T20:04:29.121Z,6.40
2022-11-27T20:09:32.024Z,6.40
2022-11-27T20:14:34.913Z,6.50
2022-11-27T20:19:37.164Z,6.50
2022-11-27T20:24:58.103Z,6.50
2022-11-27T20:30:08.778Z,6.50
2022-11-27T20:35:11.829Z,6.50
2022-11-27T20:40:14.952Z,6.40
2022-11-27T20:45:20.570Z,6.40
2022-11-27T20:50:24.222Z,6.40
2022-11-27T20:55:27.540Z,6.40
2022-11-27T21:00:31.167Z,6.30
2022-11-27T21:05:34.440Z,6.30
2022-11-27T21:10:37.577Z,6.30
2022-11-27T21:15:46.866Z,6.30
2022-11-27T21:20:49.738Z,6.30
2022-11-27T21:25:52.545Z,6.30
2022-11-27T21:30:55.156Z,6.30
2022-11-27T21:35:58.072Z,6.30
2022-11-27T21:41:00.950Z,6.30
2022-11-27T21:46:19.473Z,6.30
2022-11-27T21:51:23.126Z,6.30
2022-11-27T21:56:28.924Z,6.30
2022-11-27T22:01:31.916Z,6.20
2022-11-27T22:06:41.492Z,6.30
2022-11-27T22:11:46.487Z,6.20
2022-11-27T22:16:49.506Z,6.20
2022-11-27T22:21:52.537Z,6.20
2022-11-27T22:26:55.400Z,6.20
2022-11-27T22:31:58.351Z,6.20
2022-11-27T22:37:03.690Z,6.20
2022-11-27T22:42:06.602Z,6.20
2022-11-27T22:47:09.564Z,6.20
2022-11-27T22:52:13.069Z,6.20
2022-11-27T22:57:16.116Z,6.30
2022-11-27T23:02:19.029Z,6.30
2022-11-27T23:07:25.168Z,6.30
2022-11-27T23:12:28.376Z,6.30
2022-11-27T23:17:31.251Z,6.30
2022-11-27T23:22:34.057Z,6.30
2022-11-27T23:27:36.935Z,6.30
2022-11-27T23:32:39.765Z,6.30
2022-11-27T23:37:43.555Z,6.30
2022-11-27T23:42:46.447Z,6.20
2022-11-27T23:47:50.513Z,6.20
2022-11-27T23:52:55.056Z,6.20
2022-11-27T23:57:57.879Z,6.20
